createdAt,value
2018-09-18T00:01:45.682Z,51.20
2018-09-18T00:04:14.824Z,51.91
2018-09-18T00:06:43.983Z,51.53
2018-09-18T00:09:13.084Z,51.14
2018-09-18T00:11:42.185Z,51.20
2018-09-18T00:14:11.296Z,51.41
2018-09-18T00:16:40.381Z,51.04
2018-09-18T00:19:09.509Z,51.15
2018-09-18T00:21:38.634Z,51.42
2018-09-18T00:24:07.775Z,51.22
2018-09-18T00:26:36.837Z,51.25
2018-09-18T00:29:05.946Z,51.48
2018-09-18T00:31:35.099Z,51.30
2018-09-18T00:34:04.223Z,51.30
2018-09-18T00:36:33.314Z,51.39
2018-09-18T00:39:02.429Z,51.43
2018-09-18T00:41:31.513Z,52.06
2018-09-18T00:44:00.697Z,51.80
2018-09-18T00:46:29.781Z,51.66
2018-09-18T00:48:58.927Z,51.63
2018-09-18T00:51:28.105Z,51.50
2018-09-18T00:53:57.259Z,51.34
2018-09-18T00:56:26.337Z,51.71
2018-09-18T00:58:55.459Z,51.48
2018-09-18T01:01:24.587Z,51.73
2018-09-18T01:03:53.664Z,51.78
2018-09-18T01:06:22.828Z,51.58
2018-09-18T01:08:51.920Z,51.20
2018-09-18T01:11:21.058Z,51.30
2018-09-18T01:13:50.154Z,51.64
2018-09-18T01:16:19.264Z,51.59
2018-09-18T01:18:48.345Z,51.96
2018-09-18T01:21:17.551Z,51.62
2018-09-18T01:23:46.664Z,52.17
2018-09-18T01:26:15.804Z,52.10
2018-09-18T01:28:44.907Z,52.23
2018-09-18T01:31:13.965Z,52.13
2018-09-18T01:33:43.103Z,52.10
2018-09-18T01:36:12.206Z,51.78
2018-09-18T01:38:41.319Z,52.17
2018-09-18T01:41:10.500Z,52.05
2018-09-18T01:43:39.629Z,51.95
2018-09-18T01:46:08.795Z,52.02
2018-09-18T01:48:37.970Z,52.19
2018-09-18T01:51:07.367Z,52.24
2018-09-18T01:53:36.540Z,52.02
2018-09-18T01:56:05.696Z,51.93
2018-09-18T01:58:34.785Z,52.05
2018-09-18T02:01:03.959Z,52.49
2018-09-18T02:03:33.061Z,52.73
2018-09-18T02:06:02.203Z,53.33
2018-09-18T02:08:31.391Z,53.45
2018-09-18T02:11:00.482Z,53.96
2018-09-18T02:13:29.635Z,54.40
2018-09-18T02:15:58.761Z,54.14
2018-09-18T02:18:27.871Z,54.35
2018-09-18T02:20:56.965Z,54.24
2018-09-18T02:23:26.107Z,54.34
2018-09-18T02:25:55.219Z,53.93
2018-09-18T02:28:24.320Z,53.91
2018-09-18T02:30:53.476Z,54.11
2018-09-18T02:33:22.891Z,54.34
2018-09-18T02:35:51.990Z,54.45
2018-09-18T02:38:21.085Z,54.55
2018-09-18T02:41:01.486Z,55.44
2018-09-18T02:43:31.866Z,55.64
2018-09-18T02:46:01.003Z,56.30
2018-09-18T02:48:30.104Z,56.82
2018-09-18T02:50:59.177Z,56.94
2018-09-18T02:53:28.241Z,56.69
2018-09-18T02:55:57.367Z,56.56
2018-09-18T02:58:26.524Z,56.26
2018-09-18T03:00:55.636Z,56.47
2018-09-18T03:03:24.795Z,57.01
2018-09-18T03:05:53.990Z,56.70
2018-09-18T03:08:23.090Z,57.05
2018-09-18T03:10:52.208Z,56.68
2018-09-18T03:13:21.376Z,56.51
2018-09-18T03:15:50.506Z,56.73
2018-09-18T03:18:19.604Z,56.75
2018-09-18T03:20:48.713Z,56.76
2018-09-18T03:23:17.838Z,56.67
2018-09-18T03:25:46.970Z,56.51
2018-09-18T03:28:16.166Z,56.54
2018-09-18T03:30:45.311Z,56.47
2018-09-18T03:33:14.450Z,55.68
2018-09-18T03:35:43.894Z,55.71
2018-09-18T03:38:13.015Z,55.96
2018-09-18T03:40:42.124Z,56.37
2018-09-18T03:43:11.255Z,56.49
2018-09-18T03:45:40.350Z,56.62
2018-09-18T03:48:09.495Z,56.41
2018-09-18T03:50:38.613Z,56.49
2018-09-18T03:53:07.776Z,56.48
2018-09-18T03:58:34.099Z,56.84
2018-09-18T04:01:03.296Z,56.82
2018-09-18T04:03:32.425Z,56.92
2018-09-18T04:06:01.564Z,57.09
2018-09-18T04:08:30.633Z,57.16
2018-09-18T04:10:59.854Z,56.82
2018-09-18T04:13:28.965Z,57.00
2018-09-18T04:15:58.092Z,57.22
2018-09-18T04:18:27.717Z,57.30
2018-09-18T04:20:56.874Z,57.39
2018-09-18T04:23:26.109Z,57.67
2018-09-18T04:26:02.075Z,57.38
2018-09-18T04:28:31.243Z,57.70
2018-09-18T04:31:00.428Z,57.71
2018-09-18T04:33:29.546Z,57.74
2018-09-18T04:35:58.670Z,57.84
2018-09-18T04:38:27.789Z,58.25
2018-09-18T04:40:56.918Z,58.31
2018-09-18T04:43:26.095Z,58.34
2018-09-18T04:45:55.265Z,58.47
2018-09-18T04:48:24.373Z,58.15
2018-09-18T04:50:53.533Z,58.06
2018-09-18T04:53:22.690Z,58.56
2018-09-18T04:55:51.816Z,58.27
2018-09-18T04:58:20.977Z,58.53
2018-09-18T05:00:50.120Z,58.70
2018-09-18T05:03:19.302Z,58.55
2018-09-18T05:05:48.483Z,58.56
2018-09-18T05:08:17.711Z,58.60
2018-09-18T05:10:46.891Z,58.34
2018-09-18T05:13:16.043Z,58.61
2018-09-18T05:15:45.149Z,58.45
2018-09-18T05:18:14.323Z,58.16
2018-09-18T05:20:43.533Z,58.38
2018-09-18T05:23:12.714Z,57.94
2018-09-18T05:25:41.850Z,57.95
2018-09-18T05:28:11.280Z,58.08
2018-09-18T05:30:40.446Z,58.35
2018-09-18T05:33:09.569Z,58.56
2018-09-18T05:35:38.743Z,58.63
2018-09-18T05:38:07.909Z,58.94
2018-09-18T05:40:37.089Z,58.78
2018-09-18T05:43:06.213Z,58.70
2018-09-18T05:45:35.342Z,58.49
2018-09-18T05:48:04.499Z,58.23
2018-09-18T05:50:33.655Z,58.36
2018-09-18T05:53:02.802Z,58.13
2018-09-18T05:55:31.929Z,57.96
2018-09-18T05:58:01.118Z,57.55
2018-09-18T06:00:30.284Z,57.50
2018-09-18T06:02:59.543Z,57.48
2018-09-18T06:05:28.787Z,56.82
2018-09-18T06:07:57.984Z,56.37
2018-09-18T06:10:27.301Z,56.12
2018-09-18T06:12:56.405Z,55.98
2018-09-18T06:15:25.620Z,55.84
2018-09-18T06:17:54.815Z,55.45
2018-09-18T06:20:24.063Z,55.22
2018-09-18T06:22:53.262Z,55.34
2018-09-18T06:25:22.392Z,55.00
2018-09-18T06:27:51.537Z,54.86
2018-09-18T06:30:20.727Z,54.44
2018-09-18T06:32:49.877Z,53.91
2018-09-18T06:35:18.979Z,53.44
2018-09-18T06:37:48.101Z,52.74
2018-09-18T06:40:17.329Z,52.79
2018-09-18T06:42:46.481Z,52.54
2018-09-18T06:45:15.617Z,52.13
2018-09-18T06:47:44.781Z,51.62
2018-09-18T06:50:13.935Z,51.27
2018-09-18T06:52:44.155Z,51.05
2018-09-18T06:55:13.399Z,50.57
2018-09-18T06:57:42.513Z,50.20
2018-09-18T07:00:11.670Z,49.36
2018-09-18T07:02:40.845Z,48.92
2018-09-18T07:05:10.062Z,48.72
2018-09-18T07:07:39.426Z,48.65
2018-09-18T07:10:08.572Z,48.43
2018-09-18T07:12:37.800Z,47.43
2018-09-18T07:15:07.327Z,47.02
2018-09-18T07:17:36.487Z,46.20
2018-09-18T07:20:05.646Z,45.88
2018-09-18T07:22:34.857Z,45.52
2018-09-18T07:25:03.955Z,45.29
2018-09-18T07:27:33.411Z,45.03
2018-09-18T07:30:02.583Z,45.37
2018-09-18T07:32:32.622Z,44.77
2018-09-18T07:35:01.801Z,44.39
2018-09-18T07:37:30.953Z,44.70
2018-09-18T07:40:00.083Z,44.03
2018-09-18T07:42:29.258Z,42.82
2018-09-18T07:44:58.357Z,42.66
2018-09-18T07:47:27.548Z,42.25
2018-09-18T07:49:56.653Z,41.70
2018-09-18T07:52:25.763Z,41.46
2018-09-18T07:54:54.890Z,41.61
2018-09-18T07:57:24.053Z,41.28
2018-09-18T07:59:53.263Z,41.12
2018-09-18T08:02:22.386Z,40.18
2018-09-18T08:04:51.553Z,40.44
2018-09-18T08:07:20.704Z,40.39
2018-09-18T08:09:49.847Z,39.16
2018-09-18T08:12:18.965Z,39.11
2018-09-18T08:14:48.124Z,38.52
2018-09-18T08:17:20.231Z,38.18
2018-09-18T08:19:49.464Z,38.28
2018-09-18T08:22:18.574Z,37.75
2018-09-18T08:24:47.741Z,37.58
2018-09-18T08:27:16.911Z,37.59
2018-09-18T08:29:46.231Z,36.83
2018-09-18T08:32:15.406Z,36.66
2018-09-18T08:34:44.579Z,36.40
2018-09-18T08:37:13.752Z,35.88
2018-09-18T08:39:42.951Z,35.72
2018-09-18T08:42:12.031Z,35.53
2018-09-18T08:44:41.190Z,35.17
2018-09-18T08:47:10.379Z,34.63
2018-09-18T08:49:39.599Z,33.97
2018-09-18T08:52:08.923Z,34.23
2018-09-18T08:54:38.016Z,34.73
2018-09-18T08:57:07.204Z,34.16
2018-09-18T08:59:36.316Z,33.90
2018-09-18T09:02:05.467Z,33.55
2018-09-18T09:04:34.606Z,33.13
2018-09-18T09:07:03.731Z,33.55
2018-09-18T09:09:32.988Z,33.16
2018-09-18T09:12:02.118Z,32.33
2018-09-18T09:14:31.330Z,32.22
2018-09-18T09:17:00.424Z,31.67
2018-09-18T09:19:29.616Z,30.25
2018-09-18T09:21:58.851Z,26.84
2018-09-18T09:24:28.058Z,24.01
2018-09-18T09:26:57.427Z,22.25
2018-09-18T09:29:26.583Z,21.94
2018-09-18T09:31:55.709Z,22.47
2018-09-18T09:34:24.877Z,21.14
2018-09-18T09:36:54.063Z,20.58
2018-09-18T09:39:23.228Z,20.74
2018-09-18T09:41:52.541Z,20.14
2018-09-18T09:44:21.720Z,21.10
2018-09-18T09:46:50.880Z,20.06
2018-09-18T09:49:20.036Z,20.23
2018-09-18T09:51:49.236Z,20.47
2018-09-18T09:54:18.511Z,20.53
2018-09-18T09:56:47.699Z,20.01
2018-09-18T09:59:16.932Z,20.48
2018-09-18T10:01:55.364Z,20.68
2018-09-18T10:04:24.929Z,20.71
2018-09-18T10:06:54.156Z,20.48
2018-09-18T10:09:23.405Z,20.68
2018-09-18T10:11:52.781Z,21.21
2018-09-18T10:14:22.070Z,20.91
2018-09-18T10:16:51.323Z,21.01
2018-09-18T10:19:20.531Z,20.77
2018-09-18T10:21:49.728Z,21.14
2018-09-18T10:24:18.908Z,20.90
2018-09-18T10:26:48.198Z,20.75
2018-09-18T10:29:17.444Z,21.25
2018-09-18T10:31:46.711Z,20.70
2018-09-18T10:34:15.947Z,20.88
2018-09-18T10:36:45.207Z,21.28
2018-09-18T10:39:14.540Z,21.45
2018-09-18T10:41:43.807Z,20.71
2018-09-18T10:44:12.912Z,22.37
2018-09-18T10:46:42.152Z,22.02
2018-09-18T10:49:11.352Z,21.28
2018-09-18T10:51:40.552Z,21.37
2018-09-18T10:54:09.733Z,21.37
2018-09-18T10:56:38.939Z,22.04
2018-09-18T10:59:08.199Z,22.37
2018-09-18T11:01:37.433Z,21.71
2018-09-18T11:04:06.666Z,21.91
2018-09-18T11:06:35.911Z,21.94
2018-09-18T11:09:07.696Z,22.55
2018-09-18T11:11:37.005Z,23.09
2018-09-18T11:14:06.257Z,23.28
2018-09-18T11:16:35.512Z,23.58
2018-09-18T11:19:04.728Z,24.33
2018-09-18T11:21:34.056Z,24.70
2018-09-18T11:24:03.497Z,24.89
2018-09-18T11:26:32.794Z,25.69
2018-09-18T11:29:02.045Z,25.63
2018-09-18T11:31:31.287Z,25.62
2018-09-18T11:34:00.531Z,25.16
2018-09-18T11:36:29.757Z,25.20
2018-09-18T11:38:59.096Z,24.78
2018-09-18T11:41:28.339Z,24.36
2018-09-18T11:43:57.560Z,24.78
2018-09-18T11:46:26.861Z,24.31
2018-09-18T11:48:56.139Z,24.65
2018-09-18T11:51:25.451Z,25.18
2018-09-18T11:53:54.568Z,25.40
2018-09-18T11:56:23.812Z,24.78
2018-09-18T11:58:53.023Z,25.20
2018-09-18T12:01:22.250Z,25.41
2018-09-18T12:03:51.455Z,24.94
2018-09-18T12:06:20.682Z,24.99
2018-09-18T12:08:50.007Z,24.66
2018-09-18T12:11:19.148Z,24.59
2018-09-18T12:13:48.614Z,24.86
2018-09-18T12:16:17.875Z,24.98
2018-09-18T12:18:47.087Z,24.65
2018-09-18T12:21:16.347Z,24.74
2018-09-18T12:23:45.521Z,24.34
2018-09-18T12:26:14.754Z,24.09
2018-09-18T12:28:44.177Z,24.14
2018-09-18T12:31:13.363Z,24.16
2018-09-18T12:33:42.546Z,23.76
2018-09-18T12:36:11.763Z,23.71
2018-09-18T12:38:40.992Z,23.74
2018-09-18T12:41:10.263Z,23.51
2018-09-18T12:43:39.558Z,23.90
2018-09-18T12:46:08.859Z,23.62
2018-09-18T12:48:38.183Z,23.16
2018-09-18T12:51:07.414Z,24.16
2018-09-18T12:53:37.524Z,24.23
2018-09-18T12:56:06.813Z,24.13
2018-09-18T12:58:36.193Z,23.41
2018-09-18T13:01:05.720Z,23.72
2018-09-18T13:03:34.938Z,23.36
2018-09-18T13:06:04.225Z,23.96
2018-09-18T13:08:33.480Z,23.80
2018-09-18T13:11:02.845Z,23.34
2018-09-18T13:13:32.149Z,23.12
2018-09-18T13:16:01.391Z,22.28
2018-09-18T13:18:30.708Z,22.53
2018-09-18T13:20:59.908Z,22.52
2018-09-18T13:23:29.114Z,22.59
2018-09-18T13:25:58.301Z,22.81
2018-09-18T13:28:27.526Z,22.86
2018-09-18T13:30:56.850Z,22.74
2018-09-18T13:33:26.026Z,22.28
2018-09-18T13:35:55.295Z,22.83
2018-09-18T13:38:24.564Z,22.23
2018-09-18T13:40:53.945Z,22.43
2018-09-18T13:43:23.153Z,23.05
2018-09-18T13:45:52.426Z,22.81
2018-09-18T13:48:21.714Z,22.60
2018-09-18T13:50:50.943Z,22.83
2018-09-18T13:53:20.221Z,22.69
2018-09-18T13:55:49.443Z,22.88
2018-09-18T13:58:18.690Z,22.68
2018-09-18T14:00:47.940Z,22.57
2018-09-18T14:03:17.149Z,22.46
2018-09-18T14:05:46.413Z,22.61
2018-09-18T14:08:15.755Z,22.78
2018-09-18T14:10:45.026Z,22.80
2018-09-18T14:13:14.267Z,23.46
2018-09-18T14:15:44.400Z,22.59
2018-09-18T14:18:13.707Z,22.57
2018-09-18T14:20:42.969Z,22.38
2018-09-18T14:23:12.177Z,21.79
2018-09-18T14:25:41.470Z,22.01
2018-09-18T14:28:10.718Z,22.67
2018-09-18T14:30:39.994Z,22.22
2018-09-18T14:33:09.270Z,22.60
2018-09-18T14:35:38.488Z,22.90
2018-09-18T14:38:07.700Z,23.34
2018-09-18T14:40:37.052Z,23.66
2018-09-18T14:43:06.276Z,22.70
2018-09-18T14:45:35.560Z,22.66
2018-09-18T14:48:04.844Z,23.24
2018-09-18T14:50:34.078Z,22.91
2018-09-18T14:53:03.406Z,22.94
2018-09-18T14:55:32.697Z,23.19
2018-09-18T14:58:02.365Z,22.62
2018-09-18T15:00:31.678Z,22.88
2018-09-18T15:03:00.896Z,23.54
2018-09-18T15:05:30.168Z,24.02
2018-09-18T15:07:59.383Z,23.98
2018-09-18T15:10:28.645Z,23.74
2018-09-18T15:12:57.867Z,23.77
2018-09-18T15:15:27.103Z,24.19
2018-09-18T15:17:56.399Z,24.22
2018-09-18T15:20:25.701Z,23.85
2018-09-18T15:22:54.959Z,24.05
2018-09-18T15:25:24.228Z,23.61
2018-09-18T15:27:53.529Z,23.78
2018-09-18T15:30:22.725Z,23.77
2018-09-18T15:32:51.970Z,24.52
2018-09-18T15:35:21.214Z,24.02
2018-09-18T15:37:50.450Z,24.48
2018-09-18T15:40:19.740Z,24.37
2018-09-18T15:42:48.993Z,24.73
2018-09-18T15:45:18.203Z,24.66
2018-09-18T15:47:47.449Z,25.00
2018-09-18T15:50:16.746Z,24.80
2018-09-18T15:52:45.996Z,24.92
2018-09-18T15:55:15.337Z,25.09
2018-09-18T15:57:44.595Z,24.63
2018-09-18T16:00:13.770Z,24.55
2018-09-18T16:02:43.123Z,25.14
2018-09-18T16:05:12.415Z,24.97
2018-09-18T16:07:41.749Z,24.87
2018-09-18T16:10:11.021Z,24.94
2018-09-18T16:12:40.304Z,25.42
2018-09-18T16:15:09.603Z,25.59
2018-09-18T16:17:38.789Z,25.62
2018-09-18T16:20:08.051Z,25.87
2018-09-18T16:22:37.320Z,25.13
2018-09-18T16:25:06.636Z,25.77
2018-09-18T16:27:35.883Z,25.96
2018-09-18T16:30:05.155Z,25.47
2018-09-18T16:32:34.413Z,25.60
2018-09-18T16:35:03.664Z,26.29
2018-09-18T16:37:32.921Z,26.52
2018-09-18T16:40:02.199Z,26.32
2018-09-18T16:42:31.487Z,26.60
2018-09-18T16:45:00.723Z,26.73
2018-09-18T16:47:29.993Z,26.88
2018-09-18T16:49:59.226Z,27.15
2018-09-18T16:52:28.495Z,27.61
2018-09-18T16:54:57.880Z,28.26
2018-09-18T16:57:27.498Z,28.31
2018-09-18T16:59:56.754Z,28.29
2018-09-18T17:02:26.101Z,28.39
2018-09-18T17:04:55.496Z,28.64
2018-09-18T17:07:24.682Z,28.75
2018-09-18T17:09:53.915Z,29.06
2018-09-18T17:12:23.244Z,29.39
2018-09-18T17:14:52.496Z,29.55
2018-09-18T17:17:21.699Z,29.46
2018-09-18T17:19:50.973Z,29.62
2018-09-18T17:22:20.326Z,30.39
2018-09-18T17:24:49.560Z,30.10
2018-09-18T17:27:18.890Z,30.48
2018-09-18T17:29:48.559Z,30.39
2018-09-18T17:32:17.815Z,30.52
2018-09-18T17:34:47.084Z,30.67
2018-09-18T17:37:16.326Z,30.89
2018-09-18T17:39:45.647Z,31.33
2018-09-18T17:42:14.846Z,31.43
2018-09-18T17:44:44.095Z,31.11
2018-09-18T17:47:13.452Z,31.74
2018-09-18T17:49:42.673Z,31.83
2018-09-18T17:52:11.918Z,31.90
2018-09-18T17:54:41.189Z,31.71
2018-09-18T17:57:10.436Z,32.14
2018-09-18T17:59:39.923Z,32.03
2018-09-18T18:02:10.052Z,32.47
2018-09-18T18:04:39.430Z,32.65
2018-09-18T18:07:08.814Z,32.52
2018-09-18T18:09:38.036Z,32.28
2018-09-18T18:12:07.247Z,32.49
2018-09-18T18:14:36.459Z,32.38
2018-09-18T18:17:05.722Z,32.37
2018-09-18T18:19:34.948Z,33.15
2018-09-18T18:22:04.155Z,32.97
2018-09-18T18:24:33.360Z,33.07
2018-09-18T18:27:02.737Z,33.25
2018-09-18T18:29:32.063Z,33.39
2018-09-18T18:32:01.276Z,33.30
2018-09-18T18:34:30.509Z,33.58
2018-09-18T18:36:59.681Z,33.55
2018-09-18T18:39:28.997Z,33.95
2018-09-18T18:41:58.196Z,34.16
2018-09-18T18:44:27.404Z,34.22
2018-09-18T18:46:56.644Z,34.14
2018-09-18T18:49:25.949Z,34.25
2018-09-18T18:51:55.157Z,33.72
2018-09-18T18:54:24.450Z,34.11
2018-09-18T18:56:53.726Z,34.41
2018-09-18T18:59:22.979Z,34.29
2018-09-18T19:01:52.230Z,34.75
2018-09-18T19:04:21.633Z,34.67
2018-09-18T19:06:51.069Z,34.59
2018-09-18T19:09:20.351Z,34.54
2018-09-18T19:11:49.597Z,34.76
2018-09-18T19:14:18.864Z,35.03
2018-09-18T19:16:48.163Z,35.04
2018-09-18T19:19:17.428Z,35.59
2018-09-18T19:21:46.773Z,35.70
2018-09-18T19:24:16.066Z,35.24
2018-09-18T19:26:45.406Z,35.43
2018-09-18T19:29:14.680Z,36.02
2018-09-18T19:31:43.910Z,37.25
2018-09-18T19:34:13.216Z,36.32
2018-09-18T19:36:42.934Z,36.68
2018-09-18T19:39:12.706Z,37.46
2018-09-18T19:41:41.974Z,36.65
2018-09-18T19:44:11.181Z,37.46
2018-09-18T19:46:40.413Z,37.16
2018-09-18T19:49:09.626Z,37.05
2018-09-18T19:51:38.866Z,37.29
2018-09-18T19:54:08.066Z,37.14
2018-09-18T19:56:37.290Z,37.16
2018-09-18T19:59:06.559Z,37.18
2018-09-18T20:01:35.775Z,37.21
2018-09-18T20:04:04.964Z,37.08
2018-09-18T20:06:34.348Z,37.16
2018-09-18T20:09:03.630Z,37.36
2018-09-18T20:11:32.816Z,36.99
2018-09-18T20:14:02.099Z,36.81
2018-09-18T20:16:31.328Z,36.67
2018-09-18T20:19:00.564Z,36.60
2018-09-18T20:21:29.840Z,36.35
2018-09-18T20:23:59.085Z,36.07
2018-09-18T20:26:28.313Z,36.17
2018-09-18T20:28:57.613Z,36.02
2018-09-18T20:31:26.763Z,36.05
2018-09-18T20:33:56.522Z,36.43
2018-09-18T20:36:25.876Z,36.31
2018-09-18T20:38:55.150Z,36.50
2018-09-18T20:41:24.382Z,36.52
2018-09-18T20:43:53.630Z,36.42
2018-09-18T20:46:22.844Z,37.11
2018-09-18T20:48:52.082Z,37.11
2018-09-18T20:51:21.326Z,37.56
2018-09-18T20:53:50.582Z,37.41
2018-09-18T20:56:19.851Z,37.51
2018-09-18T20:58:49.087Z,37.69
2018-09-18T21:01:18.476Z,38.08
2018-09-18T21:03:47.679Z,37.99
2018-09-18T21:06:16.984Z,38.21
2018-09-18T21:08:46.244Z,38.67
2018-09-18T21:11:15.447Z,38.79
2018-09-18T21:13:44.668Z,38.71
2018-09-18T21:16:13.940Z,38.95
2018-09-18T21:18:43.173Z,39.13
2018-09-18T21:21:12.462Z,39.14
2018-09-18T21:23:41.766Z,39.18
2018-09-18T21:26:14.563Z,39.33
2018-09-18T21:28:43.858Z,39.22
2018-09-18T21:31:13.068Z,38.72
2018-09-18T21:33:42.289Z,39.15
2018-09-18T21:36:11.472Z,39.17
2018-09-18T21:38:40.748Z,39.05
2018-09-18T21:41:09.961Z,39.48
2018-09-18T21:43:39.231Z,39.97
2018-09-18T21:46:08.417Z,40.08
2018-09-18T21:48:37.636Z,39.98
2018-09-18T21:51:06.799Z,39.85
2018-09-18T21:53:36.113Z,39.74
2018-09-18T21:56:05.308Z,39.83
2018-09-18T21:58:34.536Z,40.05
2018-09-18T22:01:05.680Z,40.95
2018-09-18T22:03:35.282Z,41.10
2018-09-18T22:06:04.843Z,41.80
2018-09-18T22:08:34.114Z,40.90
2018-09-18T22:11:03.274Z,41.26
2018-09-18T22:13:32.519Z,40.72
2018-09-18T22:16:01.788Z,41.26
2018-09-18T22:18:31.023Z,41.45
2018-09-18T22:21:00.253Z,41.57
2018-09-18T22:23:29.427Z,41.29
2018-09-18T22:25:58.657Z,41.51
2018-09-18T22:28:27.873Z,41.78
2018-09-18T22:30:57.097Z,41.64
2018-09-18T22:33:26.340Z,41.79
2018-09-18T22:35:55.593Z,41.57
2018-09-18T22:38:24.805Z,42.18
2018-09-18T22:40:54.017Z,41.79
2018-09-18T22:43:23.250Z,42.26
2018-09-18T22:45:52.420Z,42.16
2018-09-18T22:48:21.683Z,41.96
2018-09-18T22:50:50.900Z,42.38
2018-09-18T22:53:20.123Z,42.07
2018-09-18T22:55:49.366Z,42.43
2018-09-18T22:58:18.590Z,42.61
2018-09-18T23:00:47.822Z,42.52
2018-09-18T23:03:17.149Z,42.05
2018-09-18T23:05:46.444Z,41.92
2018-09-18T23:08:15.700Z,41.57
2018-09-18T23:10:45.016Z,40.76
2018-09-18T23:13:14.309Z,41.18
2018-09-18T23:15:43.544Z,40.66
2018-09-18T23:18:12.816Z,40.21
2018-09-18T23:20:42.031Z,40.14
2018-09-18T23:23:11.283Z,39.75
2018-09-18T23:25:40.556Z,39.79
2018-09-18T23:28:09.756Z,39.77
2018-09-18T23:30:38.974Z,39.83
2018-09-18T23:33:08.228Z,40.20
2018-09-18T23:35:37.464Z,40.01
2018-09-18T23:38:06.754Z,39.87
2018-09-18T23:40:35.953Z,40.35
2018-09-18T23:43:05.143Z,40.52
2018-09-18T23:45:34.414Z,40.60
2018-09-18T23:48:03.640Z,40.44
2018-09-18T23:50:32.934Z,41.03
2018-09-18T23:53:02.152Z,40.91
2018-09-18T23:55:31.392Z,40.66
2018-09-18T23:58:00.590Z,40.69
